sensor_id;sensor_type;location;lat;lon;timestamp;temperature;humidity
17385;DHT22;8810;48.680;8.894;2022-09-04T00:01:24;14.80;99.90
17385;DHT22;8810;48.680;8.894;2022-09-04T00:03:59;14.90;99.90
17385;DHT22;8810;48.680;8.894;2022-09-04T00:06:34;14.80;99.90
17385;DHT22;8810;48.680;8.894;2022-09-04T00:09:09;14.80;99.90
17385;DHT22;8810;48.680;8.894;2022-09-04T00:11:47;14.80;99.90
17385;DHT22;8810;48.680;8.894;2022-09-04T00:14:19;14.80;99.90
17385;DHT22;8810;48.680;8.894;2022-09-04T00:16:52;14.70;99.90
17385;DHT22;8810;48.680;8.894;2022-09-04T00:19:26;14.70;99.90
17385;DHT22;8810;48.680;8.894;2022-09-04T00:21:59;14.70;99.90
17385;DHT22;8810;48.680;8.894;2022-09-04T00:24:31;14.70;99.90
17385;DHT22;8810;48.680;8.894;2022-09-04T00:27:04;14.60;99.90
17385;DHT22;8810;48.680;8.894;2022-09-04T00:29:39;14.60;99.90
17385;DHT22;8810;48.680;8.894;2022-09-04T00:32:13;14.60;99.90
17385;DHT22;8810;48.680;8.894;2022-09-04T00:34:57;14.60;99.90
17385;DHT22;8810;48.680;8.894;2022-09-04T00:37:32;14.50;99.90
17385;DHT22;8810;48.680;8.894;2022-09-04T00:40:03;14.50;99.90
17385;DHT22;8810;48.680;8.894;2022-09-04T00:51:30;14.40;99.90
17385;DHT22;8810;48.680;8.894;2022-09-04T00:54:08;14.40;99.90
17385;DHT22;8810;48.680;8.894;2022-09-04T00:57:39;14.30;99.90
17385;DHT22;8810;48.680;8.894;2022-09-04T01:00:11;14.30;99.90
17385;DHT22;8810;48.680;8.894;2022-09-04T01:03:02;14.30;99.90
17385;DHT22;8810;48.680;8.894;2022-09-04T01:05:55;14.20;99.90
17385;DHT22;8810;48.680;8.894;2022-09-04T01:08:34;14.20;99.90
17385;DHT22;8810;48.680;8.894;2022-09-04T01:11:11;14.10;99.90
17385;DHT22;8810;48.680;8.894;2022-09-04T01:13:44;14.10;99.90
17385;DHT22;8810;48.680;8.894;2022-09-04T01:16:17;14.10;99.90
17385;DHT22;8810;48.680;8.894;2022-09-04T01:18:52;14.10;99.90
17385;DHT22;8810;48.680;8.894;2022-09-04T01:21:45;14.10;99.90
17385;DHT22;8810;48.680;8.894;2022-09-04T01:24:28;14.10;99.90
17385;DHT22;8810;48.680;8.894;2022-09-04T01:27:03;14.00;99.90
17385;DHT22;8810;48.680;8.894;2022-09-04T01:29:40;14.00;99.90
17385;DHT22;8810;48.680;8.894;2022-09-04T01:32:15;14.00;99.90
17385;DHT22;8810;48.680;8.894;2022-09-04T01:34:51;13.90;99.90
17385;DHT22;8810;48.680;8.894;2022-09-04T01:37:32;13.90;99.90
17385;DHT22;8810;48.680;8.894;2022-09-04T01:40:14;13.90;99.90
17385;DHT22;8810;48.680;8.894;2022-09-04T01:42:49;13.90;99.90
17385;DHT22;8810;48.680;8.894;2022-09-04T01:45:26;13.90;99.90
17385;DHT22;8810;48.680;8.894;2022-09-04T01:47:58;13.90;99.90
17385;DHT22;8810;48.680;8.894;2022-09-04T01:50:29;13.90;99.90
17385;DHT22;8810;48.680;8.894;2022-09-04T01:53:02;13.90;99.90
17385;DHT22;8810;48.680;8.894;2022-09-04T01:55:34;13.80;99.90
17385;DHT22;8810;48.680;8.894;2022-09-04T01:58:15;13.80;99.90
17385;DHT22;8810;48.680;8.894;2022-09-04T02:00:52;13.70;99.90
17385;DHT22;8810;48.680;8.894;2022-09-04T02:03:26;13.70;99.90
17385;DHT22;8810;48.680;8.894;2022-09-04T02:06:04;13.70;99.90
17385;DHT22;8810;48.680;8.894;2022-09-04T02:08:47;13.60;99.90
17385;DHT22;8810;48.680;8.894;2022-09-04T02:11:16;13.60;99.90
17385;DHT22;8810;48.680;8.894;2022-09-04T02:14:02;13.60;99.90
17385;DHT22;8810;48.680;8.894;2022-09-04T02:16:39;13.60;99.90
17385;DHT22;8810;48.680;8.894;2022-09-04T02:19:20;13.60;99.90
17385;DHT22;8810;48.680;8.894;2022-09-04T02:21:57;13.60;99.90
17385;DHT22;8810;48.680;8.894;2022-09-04T02:24:32;13.60;99.90
17385;DHT22;8810;48.680;8.894;2022-09-04T02:27:06;13.50;99.90
17385;DHT22;8810;48.680;8.894;2022-09-04T02:29:39;13.50;99.90
17385;DHT22;8810;48.680;8.894;2022-09-04T02:32:13;13.50;99.90
17385;DHT22;8810;48.680;8.894;2022-09-04T02:34:48;13.50;99.90
17385;DHT22;8810;48.680;8.894;2022-09-04T02:37:21;13.40;99.90
17385;DHT22;8810;48.680;8.894;2022-09-04T02:39:59;13.40;99.90
17385;DHT22;8810;48.680;8.894;2022-09-04T02:42:35;13.30;99.90
17385;DHT22;8810;48.680;8.894;2022-09-04T02:45:15;13.30;99.90
17385;DHT22;8810;48.680;8.894;2022-09-04T02:47:46;13.30;99.90
17385;DHT22;8810;48.680;8.894;2022-09-04T02:50:25;13.30;99.90
17385;DHT22;8810;48.680;8.894;2022-09-04T02:53:07;13.30;99.90
17385;DHT22;8810;48.680;8.894;2022-09-04T02:55:52;13.30;99.90
17385;DHT22;8810;48.680;8.894;2022-09-04T02:58:30;13.30;99.90
17385;DHT22;8810;48.680;8.894;2022-09-04T03:01:06;13.30;99.90
17385;DHT22;8810;48.680;8.894;2022-09-04T03:03:41;13.20;99.90
17385;DHT22;8810;48.680;8.894;2022-09-04T03:06:11;13.20;99.90
17385;DHT22;8810;48.680;8.894;2022-09-04T03:08:44;13.20;99.90
17385;DHT22;8810;48.680;8.894;2022-09-04T03:11:17;13.10;99.90
17385;DHT22;8810;48.680;8.894;2022-09-04T03:13:49;13.10;99.90
17385;DHT22;8810;48.680;8.894;2022-09-04T03:16:23;13.00;99.90
17385;DHT22;8810;48.680;8.894;2022-09-04T03:19:05;13.00;99.90
17385;DHT22;8810;48.680;8.894;2022-09-04T03:21:40;13.00;99.90
17385;DHT22;8810;48.680;8.894;2022-09-04T03:24:12;13.00;99.90
17385;DHT22;8810;48.680;8.894;2022-09-04T03:26:41;13.00;99.90
17385;DHT22;8810;48.680;8.894;2022-09-04T03:29:16;13.00;99.90
17385;DHT22;8810;48.680;8.894;2022-09-04T03:31:53;13.00;99.90
17385;DHT22;8810;48.680;8.894;2022-09-04T03:34:34;12.90;99.90
17385;DHT22;8810;48.680;8.894;2022-09-04T03:37:16;12.90;99.90
17385;DHT22;8810;48.680;8.894;2022-09-04T03:39:53;12.90;99.90
17385;DHT22;8810;48.680;8.894;2022-09-04T03:42:30;12.90;99.90
17385;DHT22;8810;48.680;8.894;2022-09-04T03:45:08;12.90;99.90
17385;DHT22;8810;48.680;8.894;2022-09-04T03:47:44;12.90;99.90
17385;DHT22;8810;48.680;8.894;2022-09-04T03:50:22;12.90;99.90
17385;DHT22;8810;48.680;8.894;2022-09-04T03:52:57;12.90;99.90
17385;DHT22;8810;48.680;8.894;2022-09-04T03:55:46;12.90;99.90
17385;DHT22;8810;48.680;8.894;2022-09-04T03:58:20;12.80;99.90
17385;DHT22;8810;48.680;8.894;2022-09-04T04:00:55;12.70;99.90
17385;DHT22;8810;48.680;8.894;2022-09-04T04:03:47;12.70;99.90
17385;DHT22;8810;48.680;8.894;2022-09-04T04:06:22;12.60;99.90
17385;DHT22;8810;48.680;8.894;2022-09-04T04:09:13;12.50;99.90
17385;DHT22;8810;48.680;8.894;2022-09-04T04:11:53;12.50;99.90
17385;DHT22;8810;48.680;8.894;2022-09-04T04:14:41;12.40;99.90
17385;DHT22;8810;48.680;8.894;2022-09-04T04:17:31;12.40;99.90
17385;DHT22;8810;48.680;8.894;2022-09-04T04:20:14;12.40;99.90
17385;DHT22;8810;48.680;8.894;2022-09-04T04:22:58;12.40;99.90
17385;DHT22;8810;48.680;8.894;2022-09-04T04:25:42;12.40;99.90
17385;DHT22;8810;48.680;8.894;2022-09-04T04:28:22;12.40;99.90
17385;DHT22;8810;48.680;8.894;2022-09-04T04:31:06;12.40;99.90
17385;DHT22;8810;48.680;8.894;2022-09-04T04:33:42;12.40;99.90
17385;DHT22;8810;48.680;8.894;2022-09-04T04:36:18;12.40;99.90
17385;DHT22;8810;48.680;8.894;2022-09-04T04:39:12;12.40;99.90
17385;DHT22;8810;48.680;8.894;2022-09-04T04:41:46;12.30;99.90
17385;DHT22;8810;48.680;8.894;2022-09-04T04:44:45;12.30;99.90
17385;DHT22;8810;48.680;8.894;2022-09-04T04:50:27;12.20;99.90
17385;DHT22;8810;48.680;8.894;2022-09-04T04:53:04;12.20;99.90
17385;DHT22;8810;48.680;8.894;2022-09-04T04:55:46;12.20;99.90
17385;DHT22;8810;48.680;8.894;2022-09-04T04:58:36;12.20;99.90
17385;DHT22;8810;48.680;8.894;2022-09-04T05:01:13;12.20;99.90
17385;DHT22;8810;48.680;8.894;2022-09-04T05:03:58;12.30;99.90
17385;DHT22;8810;48.680;8.894;2022-09-04T05:06:34;12.30;99.90
17385;DHT22;8810;48.680;8.894;2022-09-04T05:09:12;12.30;99.90
17385;DHT22;8810;48.680;8.894;2022-09-04T05:11:49;12.30;99.90
17385;DHT22;8810;48.680;8.894;2022-09-04T05:14:27;12.30;99.90
17385;DHT22;8810;48.680;8.894;2022-09-04T05:17:05;12.40;99.90
17385;DHT22;8810;48.680;8.894;2022-09-04T05:19:38;12.40;99.90
17385;DHT22;8810;48.680;8.894;2022-09-04T05:22:12;12.40;99.90
17385;DHT22;8810;48.680;8.894;2022-09-04T05:24:58;12.50;99.90
17385;DHT22;8810;48.680;8.894;2022-09-04T05:27:38;12.50;99.90
17385;DHT22;8810;48.680;8.894;2022-09-04T05:30:10;12.50;99.90
17385;DHT22;8810;48.680;8.894;2022-09-04T05:32:46;12.60;99.90
17385;DHT22;8810;48.680;8.894;2022-09-04T05:35:19;12.60;99.90
17385;DHT22;8810;48.680;8.894;2022-09-04T05:37:52;12.60;99.90
17385;DHT22;8810;48.680;8.894;2022-09-04T05:40:28;12.60;99.90
17385;DHT22;8810;48.680;8.894;2022-09-04T05:43:05;12.60;99.90
17385;DHT22;8810;48.680;8.894;2022-09-04T05:45:48;12.70;99.90
17385;DHT22;8810;48.680;8.894;2022-09-04T05:48:21;12.80;99.90
17385;DHT22;8810;48.680;8.894;2022-09-04T05:51:06;12.90;99.90
17385;DHT22;8810;48.680;8.894;2022-09-04T05:54:18;12.90;99.90
17385;DHT22;8810;48.680;8.894;2022-09-04T05:57:20;13.00;99.90
17385;DHT22;8810;48.680;8.894;2022-09-04T06:00:02;13.10;99.90
17385;DHT22;8810;48.680;8.894;2022-09-04T06:08:43;13.40;99.90
17385;DHT22;8810;48.680;8.894;2022-09-04T06:11:35;13.50;99.90
17385;DHT22;8810;48.680;8.894;2022-09-04T06:17:09;13.50;99.90
17385;DHT22;8810;48.680;8.894;2022-09-04T06:19:52;13.60;99.90
17385;DHT22;8810;48.680;8.894;2022-09-04T06:22:35;13.60;99.90
17385;DHT22;8810;48.680;8.894;2022-09-04T06:25:15;13.60;99.90
17385;DHT22;8810;48.680;8.894;2022-09-04T06:28:25;13.70;99.90
17385;DHT22;8810;48.680;8.894;2022-09-04T06:31:06;13.80;99.90
17385;DHT22;8810;48.680;8.894;2022-09-04T06:33:43;13.90;99.90
17385;DHT22;8810;48.680;8.894;2022-09-04T06:36:28;14.00;99.90
17385;DHT22;8810;48.680;8.894;2022-09-04T06:39:10;14.30;99.90
17385;DHT22;8810;48.680;8.894;2022-09-04T06:42:10;14.50;99.90
17385;DHT22;8810;48.680;8.894;2022-09-04T06:44:50;14.90;99.90
17385;DHT22;8810;48.680;8.894;2022-09-04T06:47:25;15.10;99.90
17385;DHT22;8810;48.680;8.894;2022-09-04T06:50:08;15.40;99.90
17385;DHT22;8810;48.680;8.894;2022-09-04T06:52:42;15.70;99.90
17385;DHT22;8810;48.680;8.894;2022-09-04T06:55:16;16.00;99.90
17385;DHT22;8810;48.680;8.894;2022-09-04T06:58:04;16.20;99.90
17385;DHT22;8810;48.680;8.894;2022-09-04T07:00:39;16.50;99.90
17385;DHT22;8810;48.680;8.894;2022-09-04T07:03:36;16.70;99.90
17385;DHT22;8810;48.680;8.894;2022-09-04T07:06:11;17.00;99.90
17385;DHT22;8810;48.680;8.894;2022-09-04T07:08:51;17.30;99.90
17385;DHT22;8810;48.680;8.894;2022-09-04T07:11:31;17.50;99.90
17385;DHT22;8810;48.680;8.894;2022-09-04T07:14:39;17.80;99.90
17385;DHT22;8810;48.680;8.894;2022-09-04T07:17:14;18.10;99.90
17385;DHT22;8810;48.680;8.894;2022-09-04T07:19:58;18.30;99.90
17385;DHT22;8810;48.680;8.894;2022-09-04T07:22:55;18.60;99.90
17385;DHT22;8810;48.680;8.894;2022-09-04T07:25:29;18.90;99.90
17385;DHT22;8810;48.680;8.894;2022-09-04T07:28:10;19.20;99.90
17385;DHT22;8810;48.680;8.894;2022-09-04T07:30:45;19.50;99.90
17385;DHT22;8810;48.680;8.894;2022-09-04T07:33:20;19.70;99.90
17385;DHT22;8810;48.680;8.894;2022-09-04T07:35:58;20.10;99.90
17385;DHT22;8810;48.680;8.894;2022-09-04T07:38:34;20.40;99.90
17385;DHT22;8810;48.680;8.894;2022-09-04T07:41:08;20.70;99.90
17385;DHT22;8810;48.680;8.894;2022-09-04T07:43:43;20.90;99.90
17385;DHT22;8810;48.680;8.894;2022-09-04T07:46:19;21.10;99.90
17385;DHT22;8810;48.680;8.894;2022-09-04T07:48:53;21.40;99.90
17385;DHT22;8810;48.680;8.894;2022-09-04T07:51:27;21.60;99.90
17385;DHT22;8810;48.680;8.894;2022-09-04T07:57:18;22.00;99.90
17385;DHT22;8810;48.680;8.894;2022-09-04T08:00:11;22.30;99.90
17385;DHT22;8810;48.680;8.894;2022-09-04T08:03:05;22.40;99.90
17385;DHT22;8810;48.680;8.894;2022-09-04T08:05:42;22.60;99.90
17385;DHT22;8810;48.680;8.894;2022-09-04T08:11:34;22.90;99.90
17385;DHT22;8810;48.680;8.894;2022-09-04T08:14:22;23.00;99.90
17385;DHT22;8810;48.680;8.894;2022-09-04T08:17:02;23.10;99.90
17385;DHT22;8810;48.680;8.894;2022-09-04T08:19:40;23.30;99.90
17385;DHT22;8810;48.680;8.894;2022-09-04T08:22:11;23.50;99.90
17385;DHT22;8810;48.680;8.894;2022-09-04T08:24:56;23.70;99.90
17385;DHT22;8810;48.680;8.894;2022-09-04T08:27:45;23.80;99.90
17385;DHT22;8810;48.680;8.894;2022-09-04T08:30:19;23.80;99.90
17385;DHT22;8810;48.680;8.894;2022-09-04T08:33:12;23.90;99.90
17385;DHT22;8810;48.680;8.894;2022-09-04T08:35:51;24.10;99.90
17385;DHT22;8810;48.680;8.894;2022-09-04T08:38:44;24.20;99.90
17385;DHT22;8810;48.680;8.894;2022-09-04T08:41:42;24.30;99.90
17385;DHT22;8810;48.680;8.894;2022-09-04T08:47:38;24.80;99.90
17385;DHT22;8810;48.680;8.894;2022-09-04T08:56:13;25.10;99.90
17385;DHT22;8810;48.680;8.894;2022-09-04T08:59:15;25.30;99.90
17385;DHT22;8810;48.680;8.894;2022-09-04T09:02:35;25.40;99.90
17385;DHT22;8810;48.680;8.894;2022-09-04T09:05:29;25.60;99.90
17385;DHT22;8810;48.680;8.894;2022-09-04T09:11:22;26.20;99.90
17385;DHT22;8810;48.680;8.894;2022-09-04T09:14:21;26.30;99.90
17385;DHT22;8810;48.680;8.894;2022-09-04T09:17:06;26.20;99.90
17385;DHT22;8810;48.680;8.894;2022-09-04T09:19:43;25.90;99.90
17385;DHT22;8810;48.680;8.894;2022-09-04T09:22:28;25.50;99.90
17385;DHT22;8810;48.680;8.894;2022-09-04T09:25:14;25.40;99.90
17385;DHT22;8810;48.680;8.894;2022-09-04T09:34:43;25.00;99.90
17385;DHT22;8810;48.680;8.894;2022-09-04T09:37:35;25.40;99.90
17385;DHT22;8810;48.680;8.894;2022-09-04T09:40:27;25.90;99.90
17385;DHT22;8810;48.680;8.894;2022-09-04T09:43:33;26.40;99.90
17385;DHT22;8810;48.680;8.894;2022-09-04T09:52:35;26.60;99.90
17385;DHT22;8810;48.680;8.894;2022-09-04T09:55:42;26.90;99.90
17385;DHT22;8810;48.680;8.894;2022-09-04T10:01:21;27.80;99.90
17385;DHT22;8810;48.680;8.894;2022-09-04T10:04:20;28.10;99.90
17385;DHT22;8810;48.680;8.894;2022-09-04T10:07:15;28.00;99.90
17385;DHT22;8810;48.680;8.894;2022-09-04T10:10:06;27.60;99.90
17385;DHT22;8810;48.680;8.894;2022-09-04T10:13:02;27.10;99.90
17385;DHT22;8810;48.680;8.894;2022-09-04T10:15:55;26.90;99.90
17385;DHT22;8810;48.680;8.894;2022-09-04T10:21:47;26.60;99.90
17385;DHT22;8810;48.680;8.894;2022-09-04T10:24:47;26.30;99.90
17385;DHT22;8810;48.680;8.894;2022-09-04T10:27:30;26.00;99.90
17385;DHT22;8810;48.680;8.894;2022-09-04T10:30:07;25.70;99.90
17385;DHT22;8810;48.680;8.894;2022-09-04T10:33:14;25.40;99.90
17385;DHT22;8810;48.680;8.894;2022-09-04T10:35:56;25.20;99.90
17385;DHT22;8810;48.680;8.894;2022-09-04T10:38:35;24.90;99.90
17385;DHT22;8810;48.680;8.894;2022-09-04T10:44:56;24.40;99.90
17385;DHT22;8810;48.680;8.894;2022-09-04T10:47:41;24.20;99.90
17385;DHT22;8810;48.680;8.894;2022-09-04T10:50:25;24.10;99.90
17385;DHT22;8810;48.680;8.894;2022-09-04T10:56:09;23.80;99.90
17385;DHT22;8810;48.680;8.894;2022-09-04T10:59:00;23.70;99.90
17385;DHT22;8810;48.680;8.894;2022-09-04T11:04:55;23.60;99.90
17385;DHT22;8810;48.680;8.894;2022-09-04T11:07:59;23.50;99.90
17385;DHT22;8810;48.680;8.894;2022-09-04T11:10:41;23.50;99.90
17385;DHT22;8810;48.680;8.894;2022-09-04T11:13:47;23.50;99.90
17385;DHT22;8810;48.680;8.894;2022-09-04T11:16:46;23.50;99.90
17385;DHT22;8810;48.680;8.894;2022-09-04T11:19:55;23.50;99.90
17385;DHT22;8810;48.680;8.894;2022-09-04T11:26:06;23.80;99.90
17385;DHT22;8810;48.680;8.894;2022-09-04T11:28:56;24.50;99.90
17385;DHT22;8810;48.680;8.894;2022-09-04T11:31:45;25.30;99.90
17385;DHT22;8810;48.680;8.894;2022-09-04T11:35:00;25.90;99.90
17385;DHT22;8810;48.680;8.894;2022-09-04T11:38:06;26.50;99.90
17385;DHT22;8810;48.680;8.894;2022-09-04T11:41:18;27.20;99.90
17385;DHT22;8810;48.680;8.894;2022-09-04T11:50:22;28.40;96.20
17385;DHT22;8810;48.680;8.894;2022-09-04T11:53:25;28.70;95.30
17385;DHT22;8810;48.680;8.894;2022-09-04T11:59:14;28.60;94.70
17385;DHT22;8810;48.680;8.894;2022-09-04T12:02:05;28.70;94.70
17385;DHT22;8810;48.680;8.894;2022-09-04T12:05:12;29.00;95.20
17385;DHT22;8810;48.680;8.894;2022-09-04T12:07:59;29.30;94.20
17385;DHT22;8810;48.680;8.894;2022-09-04T12:10:52;29.50;92.60
17385;DHT22;8810;48.680;8.894;2022-09-04T12:13:41;29.30;91.90
17385;DHT22;8810;48.680;8.894;2022-09-04T12:16:32;29.10;93.50
17385;DHT22;8810;48.680;8.894;2022-09-04T12:22:48;28.30;92.50
17385;DHT22;8810;48.680;8.894;2022-09-04T12:25:40;27.70;92.90
17385;DHT22;8810;48.680;8.894;2022-09-04T12:31:33;26.80;93.70
17385;DHT22;8810;48.680;8.894;2022-09-04T12:34:20;26.50;95.70
17385;DHT22;8810;48.680;8.894;2022-09-04T12:37:29;26.30;94.50
17385;DHT22;8810;48.680;8.894;2022-09-04T12:40:34;26.20;96.20
17385;DHT22;8810;48.680;8.894;2022-09-04T12:43:18;26.20;97.20
17385;DHT22;8810;48.680;8.894;2022-09-04T12:45:54;26.40;98.40
17385;DHT22;8810;48.680;8.894;2022-09-04T12:48:27;27.00;98.50
17385;DHT22;8810;48.680;8.894;2022-09-04T12:51:06;27.50;97.80
17385;DHT22;8810;48.680;8.894;2022-09-04T12:53:47;28.00;97.20
17385;DHT22;8810;48.680;8.894;2022-09-04T12:56:27;28.10;95.40
17385;DHT22;8810;48.680;8.894;2022-09-04T12:59:07;28.00;95.00
17385;DHT22;8810;48.680;8.894;2022-09-04T13:01:42;27.60;94.30
17385;DHT22;8810;48.680;8.894;2022-09-04T13:04:17;27.30;94.60
17385;DHT22;8810;48.680;8.894;2022-09-04T13:06:55;27.30;94.90
17385;DHT22;8810;48.680;8.894;2022-09-04T13:09:33;27.40;94.30
17385;DHT22;8810;48.680;8.894;2022-09-04T13:12:12;27.80;94.40
17385;DHT22;8810;48.680;8.894;2022-09-04T13:17:52;28.10;93.30
17385;DHT22;8810;48.680;8.894;2022-09-04T13:20:30;28.10;92.30
17385;DHT22;8810;48.680;8.894;2022-09-04T13:23:14;28.00;92.30
17385;DHT22;8810;48.680;8.894;2022-09-04T13:26:00;27.80;93.90
17385;DHT22;8810;48.680;8.894;2022-09-04T13:28:37;27.60;93.00
17385;DHT22;8810;48.680;8.894;2022-09-04T13:31:31;27.40;94.00
17385;DHT22;8810;48.680;8.894;2022-09-04T13:34:11;27.50;93.50
17385;DHT22;8810;48.680;8.894;2022-09-04T13:36:46;27.80;94.00
17385;DHT22;8810;48.680;8.894;2022-09-04T13:39:37;28.20;94.10
17385;DHT22;8810;48.680;8.894;2022-09-04T13:42:43;28.60;93.50
17385;DHT22;8810;48.680;8.894;2022-09-04T13:45:16;29.00;92.50
17385;DHT22;8810;48.680;8.894;2022-09-04T13:47:52;29.30;92.80
17385;DHT22;8810;48.680;8.894;2022-09-04T13:50:24;29.50;91.90
17385;DHT22;8810;48.680;8.894;2022-09-04T13:52:56;29.60;91.10
17385;DHT22;8810;48.680;8.894;2022-09-04T13:55:27;29.60;90.60
17385;DHT22;8810;48.680;8.894;2022-09-04T13:58:00;29.60;90.20
17385;DHT22;8810;48.680;8.894;2022-09-04T14:00:36;29.50;89.80
17385;DHT22;8810;48.680;8.894;2022-09-04T14:03:11;29.40;90.30
17385;DHT22;8810;48.680;8.894;2022-09-04T14:05:39;29.40;90.20
17385;DHT22;8810;48.680;8.894;2022-09-04T14:08:12;29.50;90.80
17385;DHT22;8810;48.680;8.894;2022-09-04T14:11:01;29.50;90.00
17385;DHT22;8810;48.680;8.894;2022-09-04T14:13:41;29.70;90.00
17385;DHT22;8810;48.680;8.894;2022-09-04T14:16:17;29.70;87.80
17385;DHT22;8810;48.680;8.894;2022-09-04T14:19:14;29.50;85.40
17385;DHT22;8810;48.680;8.894;2022-09-04T14:22:00;29.20;90.90
17385;DHT22;8810;48.680;8.894;2022-09-04T14:24:35;29.10;90.90
17385;DHT22;8810;48.680;8.894;2022-09-04T14:27:10;29.10;92.90
17385;DHT22;8810;48.680;8.894;2022-09-04T14:29:50;29.00;91.30
17385;DHT22;8810;48.680;8.894;2022-09-04T14:32:25;28.90;90.70
17385;DHT22;8810;48.680;8.894;2022-09-04T14:35:02;28.50;90.30
17385;DHT22;8810;48.680;8.894;2022-09-04T14:37:46;28.10;90.80
17385;DHT22;8810;48.680;8.894;2022-09-04T14:40:19;27.70;92.00
17385;DHT22;8810;48.680;8.894;2022-09-04T14:42:54;27.50;93.00
17385;DHT22;8810;48.680;8.894;2022-09-04T14:45:52;27.30;93.10
17385;DHT22;8810;48.680;8.894;2022-09-04T14:48:22;27.10;93.20
17385;DHT22;8810;48.680;8.894;2022-09-04T14:50:51;27.00;93.10
17385;DHT22;8810;48.680;8.894;2022-09-04T14:53:22;27.00;93.20
17385;DHT22;8810;48.680;8.894;2022-09-04T14:56:25;27.10;93.40
17385;DHT22;8810;48.680;8.894;2022-09-04T14:58:59;27.40;93.90
17385;DHT22;8810;48.680;8.894;2022-09-04T15:01:30;27.40;92.80
17385;DHT22;8810;48.680;8.894;2022-09-04T15:04:04;27.30;92.50
17385;DHT22;8810;48.680;8.894;2022-09-04T15:06:39;27.20;92.50
17385;DHT22;8810;48.680;8.894;2022-09-04T15:09:19;27.30;92.80
17385;DHT22;8810;48.680;8.894;2022-09-04T15:11:49;27.50;92.70
17385;DHT22;8810;48.680;8.894;2022-09-04T15:14:20;27.60;93.00
17385;DHT22;8810;48.680;8.894;2022-09-04T15:16:56;27.70;92.00
17385;DHT22;8810;48.680;8.894;2022-09-04T15:19:39;27.60;92.40
17385;DHT22;8810;48.680;8.894;2022-09-04T15:22:14;27.60;92.10
17385;DHT22;8810;48.680;8.894;2022-09-04T15:24:51;27.60;91.70
17385;DHT22;8810;48.680;8.894;2022-09-04T15:27:25;27.60;91.50
17385;DHT22;8810;48.680;8.894;2022-09-04T15:30:02;27.60;91.60
17385;DHT22;8810;48.680;8.894;2022-09-04T15:32:33;27.70;91.50
17385;DHT22;8810;48.680;8.894;2022-09-04T15:35:13;27.70;91.80
17385;DHT22;8810;48.680;8.894;2022-09-04T15:37:42;27.80;91.70
17385;DHT22;8810;48.680;8.894;2022-09-04T15:40:19;27.80;91.20
17385;DHT22;8810;48.680;8.894;2022-09-04T15:43:00;27.90;91.10
17385;DHT22;8810;48.680;8.894;2022-09-04T15:45:34;27.80;90.90
17385;DHT22;8810;48.680;8.894;2022-09-04T15:51:14;27.80;91.10
17385;DHT22;8810;48.680;8.894;2022-09-04T15:53:50;27.80;91.40
17385;DHT22;8810;48.680;8.894;2022-09-04T15:56:29;27.80;91.30
17385;DHT22;8810;48.680;8.894;2022-09-04T15:59:06;27.80;91.60
17385;DHT22;8810;48.680;8.894;2022-09-04T16:01:42;27.80;91.40
17385;DHT22;8810;48.680;8.894;2022-09-04T16:04:19;27.70;91.50
17385;DHT22;8810;48.680;8.894;2022-09-04T16:06:56;27.70;91.20
17385;DHT22;8810;48.680;8.894;2022-09-04T16:09:29;27.60;91.10
17385;DHT22;8810;48.680;8.894;2022-09-04T16:12:02;27.60;91.10
17385;DHT22;8810;48.680;8.894;2022-09-04T16:14:35;27.50;91.30
17385;DHT22;8810;48.680;8.894;2022-09-04T16:17:10;27.50;91.40
17385;DHT22;8810;48.680;8.894;2022-09-04T16:19:44;27.50;91.00
17385;DHT22;8810;48.680;8.894;2022-09-04T16:22:24;27.40;91.10
17385;DHT22;8810;48.680;8.894;2022-09-04T16:25:03;27.30;91.30
17385;DHT22;8810;48.680;8.894;2022-09-04T16:27:40;27.20;91.70
17385;DHT22;8810;48.680;8.894;2022-09-04T16:30:24;27.10;91.80
17385;DHT22;8810;48.680;8.894;2022-09-04T16:32:54;27.10;91.80
17385;DHT22;8810;48.680;8.894;2022-09-04T16:35:22;27.00;92.10
17385;DHT22;8810;48.680;8.894;2022-09-04T16:37:56;27.00;92.00
17385;DHT22;8810;48.680;8.894;2022-09-04T16:40:28;26.90;92.00
17385;DHT22;8810;48.680;8.894;2022-09-04T16:43:00;26.80;92.40
17385;DHT22;8810;48.680;8.894;2022-09-04T16:45:32;26.70;92.00
17385;DHT22;8810;48.680;8.894;2022-09-04T16:48:06;26.70;92.10
17385;DHT22;8810;48.680;8.894;2022-09-04T16:50:38;26.60;92.40
17385;DHT22;8810;48.680;8.894;2022-09-04T16:53:14;26.60;92.10
17385;DHT22;8810;48.680;8.894;2022-09-04T16:55:54;26.50;92.00
17385;DHT22;8810;48.680;8.894;2022-09-04T16:58:33;26.50;92.10
17385;DHT22;8810;48.680;8.894;2022-09-04T17:01:15;26.40;92.20
17385;DHT22;8810;48.680;8.894;2022-09-04T17:06:43;26.20;92.40
17385;DHT22;8810;48.680;8.894;2022-09-04T17:09:18;26.20;92.70
17385;DHT22;8810;48.680;8.894;2022-09-04T17:11:49;26.10;92.70
17385;DHT22;8810;48.680;8.894;2022-09-04T17:14:21;25.90;93.00
17385;DHT22;8810;48.680;8.894;2022-09-04T17:16:53;25.80;93.20
17385;DHT22;8810;48.680;8.894;2022-09-04T17:19:22;25.80;93.60
17385;DHT22;8810;48.680;8.894;2022-09-04T17:22:08;25.60;94.10
17385;DHT22;8810;48.680;8.894;2022-09-04T17:25:10;25.50;94.10
17385;DHT22;8810;48.680;8.894;2022-09-04T17:27:43;25.40;94.60
17385;DHT22;8810;48.680;8.894;2022-09-04T17:30:15;25.30;94.40
17385;DHT22;8810;48.680;8.894;2022-09-04T17:32:47;25.10;94.40
17385;DHT22;8810;48.680;8.894;2022-09-04T17:35:21;25.10;94.70
17385;DHT22;8810;48.680;8.894;2022-09-04T17:37:53;24.90;95.30
17385;DHT22;8810;48.680;8.894;2022-09-04T17:40:25;24.80;95.40
17385;DHT22;8810;48.680;8.894;2022-09-04T17:43:00;24.70;95.80
17385;DHT22;8810;48.680;8.894;2022-09-04T17:45:36;24.60;95.50
17385;DHT22;8810;48.680;8.894;2022-09-04T17:48:17;24.40;96.10
17385;DHT22;8810;48.680;8.894;2022-09-04T17:50:47;24.30;96.40
17385;DHT22;8810;48.680;8.894;2022-09-04T17:53:20;24.20;97.00
17385;DHT22;8810;48.680;8.894;2022-09-04T17:55:51;24.00;97.00
17385;DHT22;8810;48.680;8.894;2022-09-04T17:58:26;23.80;97.30
17385;DHT22;8810;48.680;8.894;2022-09-04T18:00:58;23.70;97.70
17385;DHT22;8810;48.680;8.894;2022-09-04T18:03:32;23.50;98.00
17385;DHT22;8810;48.680;8.894;2022-09-04T18:06:03;23.40;98.30
17385;DHT22;8810;48.680;8.894;2022-09-04T18:08:34;23.20;98.60
17385;DHT22;8810;48.680;8.894;2022-09-04T18:11:10;23.10;98.70
17385;DHT22;8810;48.680;8.894;2022-09-04T18:13:42;22.90;99.40
17385;DHT22;8810;48.680;8.894;2022-09-04T18:16:19;22.80;99.90
17385;DHT22;8810;48.680;8.894;2022-09-04T18:18:51;22.60;99.90
17385;DHT22;8810;48.680;8.894;2022-09-04T18:21:21;22.40;99.90
17385;DHT22;8810;48.680;8.894;2022-09-04T18:23:55;22.30;99.90
17385;DHT22;8810;48.680;8.894;2022-09-04T18:26:31;22.10;99.90
17385;DHT22;8810;48.680;8.894;2022-09-04T18:29:02;22.00;99.90
17385;DHT22;8810;48.680;8.894;2022-09-04T18:31:35;21.80;99.90
17385;DHT22;8810;48.680;8.894;2022-09-04T18:34:22;21.70;99.90
17385;DHT22;8810;48.680;8.894;2022-09-04T18:36:57;21.60;99.90
17385;DHT22;8810;48.680;8.894;2022-09-04T18:39:32;21.50;99.90
17385;DHT22;8810;48.680;8.894;2022-09-04T18:42:18;21.40;99.90
17385;DHT22;8810;48.680;8.894;2022-09-04T18:44:49;21.30;99.90
17385;DHT22;8810;48.680;8.894;2022-09-04T18:47:20;21.20;99.90